sensor_id;sensor_type;location;lat;lon;timestamp;pressure;altitude;pressure_sealevel;temperature;humidity
56928;BME280;60850;52.502;13.426;2023-04-19T00:01:59;102313.84;;;6.21;100.00
56928;BME280;60850;52.502;13.426;2023-04-19T00:04:27;102313.84;;;6.21;100.00
56928;BME280;60850;52.502;13.426;2023-04-19T00:06:55;102314.66;;;6.18;100.00
56928;BME280;60850;52.502;13.426;2023-04-19T00:09:23;102319.78;;;6.08;100.00
56928;BME280;60850;52.502;13.426;2023-04-19T00:11:50;102315.50;;;6.16;100.00
56928;BME280;60850;52.502;13.426;2023-04-19T00:14:17;102316.63;;;6.30;100.00
56928;BME280;60850;52.502;13.426;2023-04-19T00:16:44;102313.16;;;6.34;100.00
56928;BME280;60850;52.502;13.426;2023-04-19T00:19:11;102308.03;;;6.43;100.00
56928;BME280;60850;52.502;13.426;2023-04-19T00:21:38;102308.03;;;6.43;100.00
56928;BME280;60850;52.502;13.426;2023-04-19T00:24:07;102300.06;;;6.42;100.00
56928;BME280;60850;52.502;13.426;2023-04-19T00:26:33;102309.09;;;6.56;100.00
56928;BME280;60850;52.502;13.426;2023-04-19T00:29:01;102306.31;;;6.48;100.00
56928;BME280;60850;52.502;13.426;2023-04-19T00:31:27;102309.72;;;6.41;100.00
56928;BME280;60850;52.502;13.426;2023-04-19T00:33:55;102306.06;;;6.33;100.00
56928;BME280;60850;52.502;13.426;2023-04-19T00:36:22;102310.66;;;6.42;100.00
56928;BME280;60850;52.502;13.426;2023-04-19T00:38:49;102311.56;;;6.45;100.00
56928;BME280;60850;52.502;13.426;2023-04-19T00:41:17;102300.94;;;6.42;100.00
56928;BME280;60850;52.502;13.426;2023-04-19T00:43:44;102299.97;;;6.36;100.00
56928;BME280;60850;52.502;13.426;2023-04-19T00:46:12;102309.56;;;6.30;100.00
56928;BME280;60850;52.502;13.426;2023-04-19T00:48:40;102315.63;;;6.23;100.00
56928;BME280;60850;52.502;13.426;2023-04-19T00:51:07;102312.72;;;6.07;100.00
56928;BME280;60850;52.502;13.426;2023-04-19T00:53:35;102309.03;;;5.98;100.00
56928;BME280;60850;52.502;13.426;2023-04-19T00:56:04;102310.06;;;6.07;100.00
56928;BME280;60850;52.502;13.426;2023-04-19T00:58:33;102303.81;;;6.01;100.00
56928;BME280;60850;52.502;13.426;2023-04-19T01:01:01;102304.66;;;6.00;100.00
56928;BME280;60850;52.502;13.426;2023-04-19T01:03:28;102301.06;;;5.97;100.00
56928;BME280;60850;52.502;13.426;2023-04-19T01:05:55;102292.97;;;5.89;100.00
56928;BME280;60850;52.502;13.426;2023-04-19T01:08:22;102305.19;;;5.83;100.00
56928;BME280;60850;52.502;13.426;2023-04-19T01:10:49;102303.44;;;5.83;100.00
56928;BME280;60850;52.502;13.426;2023-04-19T01:13:16;102303.16;;;5.68;100.00
56928;BME280;60850;52.502;13.426;2023-04-19T01:15:44;102308.72;;;5.83;100.00
56928;BME280;60850;52.502;13.426;2023-04-19T01:18:11;102308.44;;;5.66;100.00
56928;BME280;60850;52.502;13.426;2023-04-19T01:20:38;102310.81;;;5.53;100.00
56928;BME280;60850;52.502;13.426;2023-04-19T01:23:07;102302.69;;;5.43;100.00
56928;BME280;60850;52.502;13.426;2023-04-19T01:25:36;102304.34;;;5.38;100.00
56928;BME280;60850;52.502;13.426;2023-04-19T01:28:03;102308.53;;;5.27;100.00
56928;BME280;60850;52.502;13.426;2023-04-19T01:30:31;102302.38;;;5.28;100.00
56928;BME280;60850;52.502;13.426;2023-04-19T01:32:58;102302.19;;;5.19;100.00
56928;BME280;60850;52.502;13.426;2023-04-19T01:35:25;102295.13;;;5.18;100.00
56928;BME280;60850;52.502;13.426;2023-04-19T01:37:52;102295.00;;;5.12;100.00
56928;BME280;60850;52.502;13.426;2023-04-19T01:40:23;102295.69;;;5.03;100.00
56928;BME280;60850;52.502;13.426;2023-04-19T01:42:50;102300.91;;;5.00;100.00
56928;BME280;60850;52.502;13.426;2023-04-19T01:45:17;102301.84;;;5.02;100.00
56928;BME280;60850;52.502;13.426;2023-04-19T01:47:44;102296.06;;;4.79;100.00
56928;BME280;60850;52.502;13.426;2023-04-19T01:50:11;102291.00;;;4.90;100.00
56928;BME280;60850;52.502;13.426;2023-04-19T01:52:38;102299.69;;;4.84;100.00
56928;BME280;60850;52.502;13.426;2023-04-19T01:55:06;102280.22;;;4.79;100.00
56928;BME280;60850;52.502;13.426;2023-04-19T01:57:34;102286.50;;;4.86;100.00
56928;BME280;60850;52.502;13.426;2023-04-19T02:00:01;102281.94;;;4.79;100.00
56928;BME280;60850;52.502;13.426;2023-04-19T02:02:28;102287.28;;;4.80;100.00
56928;BME280;60850;52.502;13.426;2023-04-19T02:04:56;102285.56;;;4.82;100.00
56928;BME280;60850;52.502;13.426;2023-04-19T02:07:23;102279.22;;;4.74;100.00
56928;BME280;60850;52.502;13.426;2023-04-19T02:09:50;102280.09;;;4.73;100.00
56928;BME280;60850;52.502;13.426;2023-04-19T02:12:17;102286.00;;;4.63;100.00
56928;BME280;60850;52.502;13.426;2023-04-19T02:14:45;102278.88;;;4.59;100.00
56928;BME280;60850;52.502;13.426;2023-04-19T02:17:12;102286.63;;;4.51;100.00
56928;BME280;60850;52.502;13.426;2023-04-19T02:19:39;102275.09;;;4.48;100.00
56928;BME280;60850;52.502;13.426;2023-04-19T02:22:06;102278.63;;;4.48;100.00
56928;BME280;60850;52.502;13.426;2023-04-19T02:24:33;102277.84;;;4.52;100.00
56928;BME280;60850;52.502;13.426;2023-04-19T02:27:00;102284.78;;;4.49;100.00
56928;BME280;60850;52.502;13.426;2023-04-19T02:29:27;102273.31;;;4.47;100.00
56928;BME280;60850;52.502;13.426;2023-04-19T02:31:55;102268.91;;;4.46;100.00
56928;BME280;60850;52.502;13.426;2023-04-19T02:34:22;102269.81;;;4.48;100.00
56928;BME280;60850;52.502;13.426;2023-04-19T02:36:49;102264.53;;;4.48;100.00
56928;BME280;60850;52.502;13.426;2023-04-19T02:39:16;102266.88;;;4.35;100.00
56928;BME280;60850;52.502;13.426;2023-04-19T02:41:43;102257.06;;;4.30;100.00
56928;BME280;60850;52.502;13.426;2023-04-19T02:44:10;102250.97;;;4.32;100.00
56928;BME280;60850;52.502;13.426;2023-04-19T02:46:37;102252.72;;;4.30;100.00
56928;BME280;60850;52.502;13.426;2023-04-19T02:49:05;102261.44;;;4.29;100.00
56928;BME280;60850;52.502;13.426;2023-04-19T02:51:32;102256.09;;;4.25;100.00
56928;BME280;60850;52.502;13.426;2023-04-19T02:53:59;102248.97;;;4.22;100.00
56928;BME280;60850;52.502;13.426;2023-04-19T02:56:26;102246.28;;;4.21;100.00
56928;BME280;60850;52.502;13.426;2023-04-19T02:58:52;102244.53;;;4.20;100.00
56928;BME280;60850;52.502;13.426;2023-04-19T03:01:21;102242.56;;;4.11;100.00
56928;BME280;60850;52.502;13.426;2023-04-19T03:03:48;102236.38;;;4.09;100.00
56928;BME280;60850;52.502;13.426;2023-04-19T03:06:17;102231.13;;;4.12;100.00
56928;BME280;60850;52.502;13.426;2023-04-19T03:08:44;102235.41;;;4.07;100.00
56928;BME280;60850;52.502;13.426;2023-04-19T03:11:11;102234.63;;;4.11;100.00
56928;BME280;60850;52.502;13.426;2023-04-19T03:13:38;102238.13;;;4.10;100.00
56928;BME280;60850;52.502;13.426;2023-04-19T03:16:05;102235.44;;;4.08;100.00
56928;BME280;60850;52.502;13.426;2023-04-19T03:18:33;102231.81;;;4.03;100.00
56928;BME280;60850;52.502;13.426;2023-04-19T03:21:01;102219.56;;;4.07;100.00
56928;BME280;60850;52.502;13.426;2023-04-19T03:23:29;102224.94;;;4.10;100.00
56928;BME280;60850;52.502;13.426;2023-04-19T03:25:56;102227.53;;;4.08;100.00
56928;BME280;60850;52.502;13.426;2023-04-19T03:28:23;102224.97;;;4.11;100.00
56928;BME280;60850;52.502;13.426;2023-04-19T03:30:50;102216.97;;;4.08;100.00
56928;BME280;60850;52.502;13.426;2023-04-19T03:33:17;102216.06;;;4.08;100.00
56928;BME280;60850;52.502;13.426;2023-04-19T03:35:44;102214.22;;;4.02;100.00
56928;BME280;60850;52.502;13.426;2023-04-19T03:38:11;102206.38;;;4.07;100.00
56928;BME280;60850;52.502;13.426;2023-04-19T03:40:39;102212.63;;;4.10;100.00
56928;BME280;60850;52.502;13.426;2023-04-19T03:43:06;102206.47;;;4.10;100.00
56928;BME280;60850;52.502;13.426;2023-04-19T03:45:33;102206.56;;;4.14;100.00
56928;BME280;60850;52.502;13.426;2023-04-19T03:48:00;102208.22;;;4.09;100.00
56928;BME280;60850;52.502;13.426;2023-04-19T03:50:27;102210.75;;;4.05;100.00
56928;BME280;60850;52.502;13.426;2023-04-19T03:52:54;102213.38;;;4.05;100.00
56928;BME280;60850;52.502;13.426;2023-04-19T03:55:21;102206.31;;;4.04;100.00
56928;BME280;60850;52.502;13.426;2023-04-19T03:57:49;102202.66;;;3.99;100.00
56928;BME280;60850;52.502;13.426;2023-04-19T04:00:16;102210.59;;;3.99;100.00
56928;BME280;60850;52.502;13.426;2023-04-19T04:02:43;102207.91;;;3.97;100.00
56928;BME280;60850;52.502;13.426;2023-04-19T04:05:10;102204.47;;;4.01;100.00
56928;BME280;60850;52.502;13.426;2023-04-19T04:07:37;102194.91;;;4.05;100.00
56928;BME280;60850;52.502;13.426;2023-04-19T04:10:05;102196.81;;;4.10;100.00
56928;BME280;60850;52.502;13.426;2023-04-19T04:12:32;102202.06;;;4.09;100.00
56928;BME280;60850;52.502;13.426;2023-04-19T04:15:01;102197.84;;;4.17;100.00
56928;BME280;60850;52.502;13.426;2023-04-19T04:17:27;102197.84;;;4.17;100.00
56928;BME280;60850;52.502;13.426;2023-04-19T04:19:54;102195.13;;;4.16;100.00
56928;BME280;60850;52.502;13.426;2023-04-19T04:22:21;102187.28;;;4.17;100.00
56928;BME280;60850;52.502;13.426;2023-04-19T04:24:48;102187.44;;;4.25;100.00
56928;BME280;60850;52.502;13.426;2023-04-19T04:27:15;102185.84;;;4.31;100.00
56928;BME280;60850;52.502;13.426;2023-04-19T04:29:45;102195.72;;;4.40;100.00
56928;BME280;60850;52.502;13.426;2023-04-19T04:32:15;102181.16;;;5.03;100.00
56928;BME280;60850;52.502;13.426;2023-04-19T04:34:42;102179.31;;;5.45;100.00
56928;BME280;60850;52.502;13.426;2023-04-19T04:37:10;102179.31;;;5.47;100.00
56928;BME280;60850;52.502;13.426;2023-04-19T04:39:37;102181.22;;;5.56;100.00
56928;BME280;60850;52.502;13.426;2023-04-19T04:42:04;102179.78;;;5.74;100.00
56928;BME280;60850;52.502;13.426;2023-04-19T04:44:33;102168.25;;;6.27;100.00
56928;BME280;60850;52.502;13.426;2023-04-19T04:47:00;102163.94;;;6.33;100.00
56928;BME280;60850;52.502;13.426;2023-04-19T04:49:29;102182.44;;;6.29;100.00
56928;BME280;60850;52.502;13.426;2023-04-19T04:51:56;102167.00;;;6.00;100.00
56928;BME280;60850;52.502;13.426;2023-04-19T04:54:23;102167.56;;;5.83;100.00
56928;BME280;60850;52.502;13.426;2023-04-19T04:56:50;102164.63;;;6.19;100.00
56928;BME280;60850;52.502;13.426;2023-04-19T04:59:17;102161.94;;;7.74;100.00
56928;BME280;60850;52.502;13.426;2023-04-19T05:01:44;102154.66;;;8.96;100.00
56928;BME280;60850;52.502;13.426;2023-04-19T05:04:11;102151.19;;;9.40;100.00
56928;BME280;60850;52.502;13.426;2023-04-19T05:06:39;102152.97;;;9.45;100.00
56928;BME280;60850;52.502;13.426;2023-04-19T05:09:06;102152.97;;;9.31;100.00
56928;BME280;60850;52.502;13.426;2023-04-19T05:11:33;102152.06;;;9.37;100.00
56928;BME280;60850;52.502;13.426;2023-04-19T05:14:00;102157.38;;;9.19;100.00
56928;BME280;60850;52.502;13.426;2023-04-19T05:16:27;102146.53;;;8.56;100.00
56928;BME280;60850;52.502;13.426;2023-04-19T05:18:54;102148.09;;;8.22;100.00
56928;BME280;60850;52.502;13.426;2023-04-19T05:21:21;102140.53;;;9.24;100.00
56928;BME280;60850;52.502;13.426;2023-04-19T05:23:49;102149.41;;;9.78;100.00
56928;BME280;60850;52.502;13.426;2023-04-19T05:26:18;102141.13;;;10.84;93.64
56928;BME280;60850;52.502;13.426;2023-04-19T05:28:45;102133.66;;;12.36;81.73
56928;BME280;60850;52.502;13.426;2023-04-19T05:31:12;102132.38;;;12.68;71.91
56928;BME280;60850;52.502;13.426;2023-04-19T05:33:39;102131.78;;;12.44;71.17
56928;BME280;60850;52.502;13.426;2023-04-19T05:36:06;102127.81;;;12.77;70.60
56928;BME280;60850;52.502;13.426;2023-04-19T05:38:33;102119.28;;;13.12;65.31
56928;BME280;60850;52.502;13.426;2023-04-19T05:41:02;102125.06;;;14.41;58.64
56928;BME280;60850;52.502;13.426;2023-04-19T05:43:29;102116.63;;;15.01;55.87
56928;BME280;60850;52.502;13.426;2023-04-19T05:45:56;102116.94;;;13.99;55.74
56928;BME280;60850;52.502;13.426;2023-04-19T05:48:23;102120.53;;;14.44;56.20
56928;BME280;60850;52.502;13.426;2023-04-19T05:50:50;102127.16;;;15.11;54.14
56928;BME280;60850;52.502;13.426;2023-04-19T05:53:19;102130.19;;;14.08;55.87
56928;BME280;60850;52.502;13.426;2023-04-19T05:55:46;102126.34;;;13.73;57.64
56928;BME280;60850;52.502;13.426;2023-04-19T05:58:17;102138.06;;;13.09;60.59
56928;BME280;60850;52.502;13.426;2023-04-19T06:00:44;102130.19;;;12.99;60.58
56928;BME280;60850;52.502;13.426;2023-04-19T06:03:11;102134.91;;;12.03;66.46
56928;BME280;60850;52.502;13.426;2023-04-19T06:05:38;102129.88;;;12.55;67.99
56928;BME280;60850;52.502;13.426;2023-04-19T06:08:05;102122.28;;;12.88;63.53
56928;BME280;60850;52.502;13.426;2023-04-19T06:10:35;102130.44;;;14.41;64.89
56928;BME280;60850;52.502;13.426;2023-04-19T06:13:02;102113.97;;;17.29;54.29
56928;BME280;60850;52.502;13.426;2023-04-19T06:15:31;102109.94;;;20.00;42.04
56928;BME280;60850;52.502;13.426;2023-04-19T06:17:58;102111.50;;;21.41;37.04
56928;BME280;60850;52.502;13.426;2023-04-19T06:20:25;102115.22;;;21.91;35.39
56928;BME280;60850;52.502;13.426;2023-04-19T06:22:52;102117.00;;;23.25;33.24
56928;BME280;60850;52.502;13.426;2023-04-19T06:25:19;102109.19;;;24.10;32.56
56928;BME280;60850;52.502;13.426;2023-04-19T06:27:46;102126.38;;;23.03;30.89
56928;BME280;60850;52.502;13.426;2023-04-19T06:30:13;102117.69;;;20.88;33.97
56928;BME280;60850;52.502;13.426;2023-04-19T06:32:42;102119.88;;;22.07;33.64
56928;BME280;60850;52.502;13.426;2023-04-19T06:35:10;102117.88;;;20.64;36.95
56928;BME280;60850;52.502;13.426;2023-04-19T06:37:37;102110.00;;;20.39;36.29
56928;BME280;60850;52.502;13.426;2023-04-19T06:40:05;102119.34;;;19.71;35.60
56928;BME280;60850;52.502;13.426;2023-04-19T06:42:33;102117.72;;;18.04;38.81
56928;BME280;60850;52.502;13.426;2023-04-19T06:44:59;102109.84;;;17.17;41.25
56928;BME280;60850;52.502;13.426;2023-04-19T06:47:27;102103.81;;;18.87;38.87
56928;BME280;60850;52.502;13.426;2023-04-19T06:49:56;102103.97;;;18.35;38.59
56928;BME280;60850;52.502;13.426;2023-04-19T06:52:23;102109.22;;;16.48;40.28
56928;BME280;60850;52.502;13.426;2023-04-19T06:54:50;102096.88;;;16.41;42.32
56928;BME280;60850;52.502;13.426;2023-04-19T06:57:18;102093.38;;;17.26;41.96
56928;BME280;60850;52.502;13.426;2023-04-19T06:59:44;102078.00;;;18.33;38.95
56928;BME280;60850;52.502;13.426;2023-04-19T07:02:12;102071.34;;;17.93;39.26
56928;BME280;60850;52.502;13.426;2023-04-19T07:04:38;102082.06;;;17.95;38.38
56928;BME280;60850;52.502;13.426;2023-04-19T07:07:07;102075.78;;;20.57;34.75
56928;BME280;60850;52.502;13.426;2023-04-19T07:09:34;102065.66;;;22.87;31.90
56928;BME280;60850;52.502;13.426;2023-04-19T07:12:01;102069.16;;;23.82;28.81
56928;BME280;60850;52.502;13.426;2023-04-19T07:14:27;102068.16;;;24.56;27.49
56928;BME280;60850;52.502;13.426;2023-04-19T07:16:54;102074.75;;;24.95;26.65
56928;BME280;60850;52.502;13.426;2023-04-19T07:19:21;102062.50;;;24.45;26.53
56928;BME280;60850;52.502;13.426;2023-04-19T07:21:49;102060.06;;;26.29;24.71
56928;BME280;60850;52.502;13.426;2023-04-19T07:24:17;102064.09;;;26.11;23.91
56928;BME280;60850;52.502;13.426;2023-04-19T07:26:44;102044.91;;;27.35;23.52
56928;BME280;60850;52.502;13.426;2023-04-19T07:29:11;102051.59;;;27.90;22.66
56928;BME280;60850;52.502;13.426;2023-04-19T07:31:38;102043.31;;;29.04;21.90
56928;BME280;60850;52.502;13.426;2023-04-19T07:34:06;102053.03;;;28.30;21.02
56928;BME280;60850;52.502;13.426;2023-04-19T07:36:33;102043.34;;;27.55;21.99
56928;BME280;60850;52.502;13.426;2023-04-19T07:39:01;102044.31;;;28.58;21.65
56928;BME280;60850;52.502;13.426;2023-04-19T07:41:31;102029.09;;;29.63;20.32
56928;BME280;60850;52.502;13.426;2023-04-19T07:43:57;102025.09;;;28.25;20.47
56928;BME280;60850;52.502;13.426;2023-04-19T07:46:25;102027.44;;;29.40;20.03
56928;BME280;60850;52.502;13.426;2023-04-19T07:48:51;102019.25;;;30.33;19.35
56928;BME280;60850;52.502;13.426;2023-04-19T07:51:18;102001.50;;;29.95;19.23
56928;BME280;60850;52.502;13.426;2023-04-19T07:53:48;102011.28;;;29.46;19.35
56928;BME280;60850;52.502;13.426;2023-04-19T07:56:15;102015.91;;;30.08;18.91
56928;BME280;60850;52.502;13.426;2023-04-19T07:58:43;102009.53;;;28.14;19.94
56928;BME280;60850;52.502;13.426;2023-04-19T08:01:10;102014.53;;;28.42;19.80
56928;BME280;60850;52.502;13.426;2023-04-19T08:03:37;102021.72;;;26.68;20.71
56928;BME280;60850;52.502;13.426;2023-04-19T08:06:05;102014.88;;;26.86;21.34
56928;BME280;60850;52.502;13.426;2023-04-19T08:08:32;102007.00;;;28.67;20.06
56928;BME280;60850;52.502;13.426;2023-04-19T08:10:59;102008.03;;;28.43;19.85
56928;BME280;60850;52.502;13.426;2023-04-19T08:13:27;102000.31;;;29.14;19.00
56928;BME280;60850;52.502;13.426;2023-04-19T08:15:56;101992.25;;;29.34;18.72
56928;BME280;60850;52.502;13.426;2023-04-19T08:18:23;101991.44;;;29.54;18.50
56928;BME280;60850;52.502;13.426;2023-04-19T08:20:50;101994.44;;;28.53;18.65
56928;BME280;60850;52.502;13.426;2023-04-19T08:23:17;101995.97;;;27.31;19.13
56928;BME280;60850;52.502;13.426;2023-04-19T08:25:44;102005.59;;;26.01;20.64
56928;BME280;60850;52.502;13.426;2023-04-19T08:28:11;102002.84;;;26.26;20.76
56928;BME280;60850;52.502;13.426;2023-04-19T08:30:39;102000.88;;;25.90;21.19
56928;BME280;60850;52.502;13.426;2023-04-19T08:33:07;101986.84;;;26.82;20.79
56928;BME280;60850;52.502;13.426;2023-04-19T08:35:36;101996.88;;;27.07;20.41
56928;BME280;60850;52.502;13.426;2023-04-19T08:38:03;102020.34;;;28.04;19.95
56928;BME280;60850;52.502;13.426;2023-04-19T08:40:30;101987.81;;;25.56;21.38
56928;BME280;60850;52.502;13.426;2023-04-19T08:42:57;101995.75;;;26.11;21.57
56928;BME280;60850;52.502;13.426;2023-04-19T08:45:26;101989.22;;;26.63;21.08
56928;BME280;60850;52.502;13.426;2023-04-19T08:47:55;101991.06;;;25.88;22.03
56928;BME280;60850;52.502;13.426;2023-04-19T08:50:24;101975.69;;;25.47;21.77
56928;BME280;60850;52.502;13.426;2023-04-19T08:52:51;101978.41;;;23.96;23.19
56928;BME280;60850;52.502;13.426;2023-04-19T08:55:19;101984.25;;;24.04;23.14
56928;BME280;60850;52.502;13.426;2023-04-19T08:57:46;101977.25;;;22.64;24.64
56928;BME280;60850;52.502;13.426;2023-04-19T09:00:14;101976.81;;;19.71;28.43
56928;BME280;60850;52.502;13.426;2023-04-19T09:02:44;101973.53;;;18.11;30.35
56928;BME280;60850;52.502;13.426;2023-04-19T09:05:12;101959.50;;;17.27;32.08
56928;BME280;60850;52.502;13.426;2023-04-19T09:07:41;101962.72;;;16.85;32.88
56928;BME280;60850;52.502;13.426;2023-04-19T09:10:10;101972.00;;;18.04;32.04
56928;BME280;60850;52.502;13.426;2023-04-19T09:12:37;101975.03;;;17.45;32.65
56928;BME280;60850;52.502;13.426;2023-04-19T09:15:06;101943.84;;;17.12;31.65
56928;BME280;60850;52.502;13.426;2023-04-19T09:17:34;101951.84;;;16.88;32.62
56928;BME280;60850;52.502;13.426;2023-04-19T09:20:01;101940.72;;;16.99;32.51
56928;BME280;60850;52.502;13.426;2023-04-19T09:22:29;101933.38;;;16.76;32.80
56928;BME280;60850;52.502;13.426;2023-04-19T09:24:58;101929.72;;;16.51;33.06
56928;BME280;60850;52.502;13.426;2023-04-19T09:27:28;101924.59;;;16.41;33.76
56928;BME280;60850;52.502;13.426;2023-04-19T09:29:57;101931.09;;;16.34;33.25
56928;BME280;60850;52.502;13.426;2023-04-19T09:32:24;101923.44;;;16.22;34.25
56928;BME280;60850;52.502;13.426;2023-04-19T09:34:53;101921.16;;;15.46;35.02
56928;BME280;60850;52.502;13.426;2023-04-19T09:37:21;101933.31;;;14.94;36.08
56928;BME280;60850;52.502;13.426;2023-04-19T09:39:48;101920.13;;;15.19;36.38
56928;BME280;60850;52.502;13.426;2023-04-19T09:42:17;101923.75;;;14.82;36.61
56928;BME280;60850;52.502;13.426;2023-04-19T09:44:57;101929.78;;;15.26;36.61
56928;BME280;60850;52.502;13.426;2023-04-19T09:47:26;101932.94;;;15.08;36.49
56928;BME280;60850;52.502;13.426;2023-04-19T09:50:05;101947.25;;;14.34;37.28
56928;BME280;60850;52.502;13.426;2023-04-19T09:52:32;101932.25;;;14.25;37.68
56928;BME280;60850;52.502;13.426;2023-04-19T09:55:00;101926.84;;;13.87;38.56
56928;BME280;60850;52.502;13.426;2023-04-19T09:57:30;101911.84;;;13.32;39.54
56928;BME280;60850;52.502;13.426;2023-04-19T09:59:58;101909.41;;;13.66;39.78
56928;BME280;60850;52.502;13.426;2023-04-19T10:02:29;101907.69;;;14.05;39.66
56928;BME280;60850;52.502;13.426;2023-04-19T10:04:57;101911.78;;;13.80;39.17
56928;BME280;60850;52.502;13.426;2023-04-19T10:07:24;101914.00;;;14.02;38.95
56928;BME280;60850;52.502;13.426;2023-04-19T10:09:54;101907.91;;;13.96;38.66
56928;BME280;60850;52.502;13.426;2023-04-19T10:12:24;101913.22;;;13.97;39.12
56928;BME280;60850;52.502;13.426;2023-04-19T10:14:53;101912.22;;;14.03;39.03
56928;BME280;60850;52.502;13.426;2023-04-19T10:17:21;101889.03;;;13.57;40.31
56928;BME280;60850;52.502;13.426;2023-04-19T10:19:51;101890.88;;;13.97;39.74
56928;BME280;60850;52.502;13.426;2023-04-19T10:22:20;101882.28;;;14.21;39.27
56928;BME280;60850;52.502;13.426;2023-04-19T10:25:12;101883.69;;;14.36;39.39
56928;BME280;60850;52.502;13.426;2023-04-19T10:27:41;101876.97;;;14.57;38.97
56928;BME280;60850;52.502;13.426;2023-04-19T10:30:17;101871.78;;;14.49;38.90
56928;BME280;60850;52.502;13.426;2023-04-19T10:32:51;101884.81;;;13.89;39.81
56928;BME280;60850;52.502;13.426;2023-04-19T10:35:19;101887.44;;;13.49;40.75
56928;BME280;60850;52.502;13.426;2023-04-19T10:38:02;101891.56;;;13.65;40.87
56928;BME280;60850;52.502;13.426;2023-04-19T10:40:54;101892.53;;;13.62;40.93
56928;BME280;60850;52.502;13.426;2023-04-19T10:43:22;101879.38;;;13.50;40.81
56928;BME280;60850;52.502;13.426;2023-04-19T10:45:51;101876.13;;;13.78;40.75
56928;BME280;60850;52.502;13.426;2023-04-19T10:48:37;101868.81;;;14.23;40.54
56928;BME280;60850;52.502;13.426;2023-04-19T10:51:11;101868.63;;;14.32;40.36
56928;BME280;60850;52.502;13.426;2023-04-19T10:53:44;101867.53;;;14.76;38.50
56928;BME280;60850;52.502;13.426;2023-04-19T10:56:14;101866.72;;;14.73;38.88
56928;BME280;60850;52.502;13.426;2023-04-19T10:59:10;101861.19;;;14.80;38.70
56928;BME280;60850;52.502;13.426;2023-04-19T11:01:40;101861.09;;;14.83;38.67
56928;BME280;60850;52.502;13.426;2023-04-19T11:04:08;101873.00;;;14.72;38.59
56928;BME280;60850;52.502;13.426;2023-04-19T11:06:36;101859.75;;;14.66;39.03
56928;BME280;60850;52.502;13.426;2023-04-19T11:09:04;101862.38;;;14.32;39.64
56928;BME280;60850;52.502;13.426;2023-04-19T11:11:35;101862.53;;;13.85;40.65
56928;BME280;60850;52.502;13.426;2023-04-19T11:14:02;101862.75;;;13.76;41.23
56928;BME280;60850;52.502;13.426;2023-04-19T11:16:29;101860.66;;;13.90;40.88
56928;BME280;60850;52.502;13.426;2023-04-19T11:18:57;101849.56;;;14.06;40.35
56928;BME280;60850;52.502;13.426;2023-04-19T11:21:24;101847.34;;;14.23;40.41
56928;BME280;60850;52.502;13.426;2023-04-19T11:24:05;101831.22;;;14.26;40.44
56928;BME280;60850;52.502;13.426;2023-04-19T11:26:34;101850.13;;;14.20;40.81
56928;BME280;60850;52.502;13.426;2023-04-19T11:29:00;101848.47;;;14.14;41.37
56928;BME280;60850;52.502;13.426;2023-04-19T11:31:31;101836.53;;;14.27;41.10
56928;BME280;60850;52.502;13.426;2023-04-19T11:33:59;101832.22;;;14.20;41.46
56928;BME280;60850;52.502;13.426;2023-04-19T11:36:26;101825.25;;;14.13;41.29
56928;BME280;60850;52.502;13.426;2023-04-19T11:38:53;101826.34;;;14.05;40.66
56928;BME280;60850;52.502;13.426;2023-04-19T11:41:20;101834.28;;;13.70;41.95
56928;BME280;60850;52.502;13.426;2023-04-19T11:43:47;101819.66;;;13.85;41.77
56928;BME280;60850;52.502;13.426;2023-04-19T11:46:14;101815.59;;;13.67;41.12
56928;BME280;60850;52.502;13.426;2023-04-19T11:48:49;101829.06;;;13.64;41.28
56928;BME280;60850;52.502;13.426;2023-04-19T11:51:19;101820.63;;;13.41;40.49
56928;BME280;60850;52.502;13.426;2023-04-19T11:53:46;101827.03;;;13.34;41.21
56928;BME280;60850;52.502;13.426;2023-04-19T11:56:13;101817.84;;;13.45;41.45
56928;BME280;60850;52.502;13.426;2023-04-19T11:58:42;101819.41;;;13.96;40.60
56928;BME280;60850;52.502;13.426;2023-04-19T12:01:14;101797.09;;;13.94;40.27
56928;BME280;60850;52.502;13.426;2023-04-19T12:03:44;101812.41;;;13.90;40.16
56928;BME280;60850;52.502;13.426;2023-04-19T12:06:12;101812.34;;;13.92;39.95
56928;BME280;60850;52.502;13.426;2023-04-19T12:08:44;101798.97;;;14.27;39.92
56928;BME280;60850;52.502;13.426;2023-04-19T12:11:12;101799.13;;;14.57;39.23
56928;BME280;60850;52.502;13.426;2023-04-19T12:13:39;101786.56;;;14.92;38.58
56928;BME280;60850;52.502;13.426;2023-04-19T12:16:07;101809.22;;;15.14;37.90
56928;BME280;60850;52.502;13.426;2023-04-19T12:18:47;101786.50;;;14.26;38.39
56928;BME280;60850;52.502;13.426;2023-04-19T12:21:25;101805.59;;;13.74;39.38
56928;BME280;60850;52.502;13.426;2023-04-19T12:23:57;101796.56;;;13.38;40.96
56928;BME280;60850;52.502;13.426;2023-04-19T12:26:26;101785.34;;;13.62;41.19
56928;BME280;60850;52.502;13.426;2023-04-19T12:28:53;101784.16;;;13.76;40.60
56928;BME280;60850;52.502;13.426;2023-04-19T12:31:21;101771.06;;;13.99;40.41
56928;BME280;60850;52.502;13.426;2023-04-19T12:33:48;101762.34;;;14.26;40.04
56928;BME280;60850;52.502;13.426;2023-04-19T12:36:15;101760.50;;;14.28;39.75
56928;BME280;60850;52.502;13.426;2023-04-19T12:38:42;101775.66;;;14.31;39.28
56928;BME280;60850;52.502;13.426;2023-04-19T12:41:13;101774.72;;;13.95;40.05
56928;BME280;60850;52.502;13.426;2023-04-19T12:43:39;101779.72;;;13.73;39.93
56928;BME280;60850;52.502;13.426;2023-04-19T12:46:06;101766.78;;;13.92;40.06